KLNA/LNA METAR and TAF weather

Enter ICAO airport designator
Station Type Date Time Source
KLNA METAR 2019/05/21 05:10 UTC NOAA

KLNA 210510Z AUTO 12005KT 10SM CLR 26/21 A2999 RMK AO2 T02590210


Station Type Date Time Source
KLNA Decoded METAR 2019/05/21 05:10 UTC NOAA

Station name not available
May 21, 2019 - 01:10 AM EDT / 2019.05.21 0510 UTC
Wind: from the ESE (120 degrees) at 6 MPH (5 KT):0
Visibility: 10 mile(s):0
Sky conditions: clear
Temperature: 78.6 F (25.9 C)
Dew Point: 69.8 F (21.0 C)
Relative Humidity: 74%
Pressure (altimeter): 29.99 in. Hg (1015 hPa)
ob: KLNA 210510Z AUTO 12005KT 10SM CLR 26/21 A2999 RMK AO2 T02590210
cycle: 5

Station Type Date Time Source
KLNA TAF UTC NOAA

Error!

Example: see airport list